Time,TemperatureF,DewpointF,PressureIn,WindDirection,WindDirectionDegrees,WindSpeedMPH,WindSpeedGustMPH,Humidity,HourlyPrecipIn,Conditions,Clouds,dailyrainin,SoftwareType,DateUTC
2013-02-25 00:01:00,29.3,-6.8,30.24,WNW,293,6.3,6.3,20,-99.99,,---,-99.99,VWS V14.01,2013-02-25 08:01:00,
2013-02-25 00:06:00,29.5,-6.6,30.24,WNW,289,6.3,6.3,20,-99.99,,---,-99.99,VWS V14.01,2013-02-25 08:06:00,
2013-02-25 00:11:00,29.5,-6.6,30.24,WNW,289,6.3,6.3,20,-99.99,,---,-99.99,VWS V14.01,2013-02-25 08:11:00,
2013-02-25 00:16:00,30.2,-6.0,30.24,West,276,3.6,3.6,20,-99.99,,---,-99.99,VWS V14.01,2013-02-25 08:16:00,
2013-02-25 00:21:00,30.2,-6.0,30.24,West,270,0.0,0.0,20,-99.99,,---,-99.99,VWS V14.01,2013-02-25 08:21:00,
2013-02-25 00:26:00,31.1,-5.3,30.24,West,270,0.0,0.0,20,-99.99,,---,-99.99,VWS V14.01,2013-02-25 08:26:00,
2013-02-25 00:31:00,31.8,-4.7,30.24,West,268,0.0,0.0,20,-99.99,,---,-99.99,VWS V14.01,2013-02-25 08:31:00,
2013-02-25 00:36:00,31.8,-4.7,30.24,West,268,0.0,0.0,20,-99.99,,---,-99.99,VWS V14.01,2013-02-25 08:36:00,
2013-02-25 00:41:00,32.4,-4.2,30.24,SW,235,0.0,0.0,20,-99.99,,---,-99.99,VWS V14.01,2013-02-25 08:41:00,
2013-02-25 00:46:00,32.4,-4.2,30.24,WSW,243,0.0,0.0,20,-99.99,,---,-99.99,VWS V14.01,2013-02-25 08:46:00,
2013-02-25 00:51:00,32.5,-4.1,30.24,WSW,243,0.0,0.0,20,-99.99,,---,-99.99,VWS V14.01,2013-02-25 08:51:00,
2013-02-25 00:56:00,32.5,-4.1,30.24,WSW,255,0.0,0.0,20,-99.99,,---,-99.99,VWS V14.01,2013-02-25 08:56:00,
2013-02-25 01:01:00,32.4,-4.2,30.24,WSW,255,0.0,0.0,20,-99.99,,---,-99.99,VWS V14.01,2013-02-25 09:01:00,
2013-02-25 01:06:00,31.6,-4.8,30.24,WSW,255,0.0,0.0,20,-99.99,,---,-99.99,VWS V14.01,2013-02-25 09:06:00,
2013-02-25 01:11:00,31.6,-4.8,30.24,WSW,255,0.0,0.0,20,-99.99,,---,-99.99,VWS V14.01,2013-02-25 09:11:00,
2013-02-25 01:16:00,31.3,-5.1,30.24,WSW,255,0.0,0.0,20,-99.99,,---,-99.99,VWS V14.01,2013-02-25 09:16:00,
2013-02-25 01:21:00,31.3,-5.1,30.24,West,275,0.0,0.0,20,-99.99,,---,-99.99,VWS V14.01,2013-02-25 09:21:00,
2013-02-25 01:26:00,30.6,-5.7,30.24,West,275,0.0,0.0,20,-99.99,,---,-99.99,VWS V14.01,2013-02-25 09:26:00,
2013-02-25 01:31:00,29.8,-6.3,30.24,West,278,0.0,0.0,20,-99.99,,---,-99.99,VWS V14.01,2013-02-25 09:31:00,
2013-02-25 01:36:00,29.8,-6.3,30.24,West,278,0.0,0.0,20,-99.99,,---,-99.99,VWS V14.01,2013-02-25 09:36:00,
2013-02-25 01:41:00,30.0,-6.2,30.24,West,265,0.0,0.0,20,-99.99,,---,-99.99,VWS V14.01,2013-02-25 09:41:00,
2013-02-25 01:46:00,30.0,-6.2,30.24,WSW,245,0.0,0.0,20,-99.99,,---,-99.99,VWS V14.01,2013-02-25 09:46:00,
2013-02-25 01:51:00,30.2,-6.0,30.24,WSW,245,0.0,0.0,20,-99.99,,---,-99.99,VWS V14.01,2013-02-25 09:51:00,
2013-02-25 01:56:00,30.2,-6.0,30.24,WSW,245,0.0,0.0,20,-99.99,,---,-99.99,VWS V14.01,2013-02-25 09:56:00,
2013-02-25 02:01:00,30.2,-6.0,30.24,WSW,245,0.0,0.0,20,-99.99,,---,-99.99,VWS V14.01,2013-02-25 10:01:00,
2013-02-25 02:06:00,30.2,-6.0,30.24,WSW,253,0.0,0.0,20,-99.99,,---,-99.99,VWS V14.01,2013-02-25 10:06:00,
2013-02-25 02:11:00,30.2,-6.0,30.24,WSW,253,0.0,0.0,20,-99.99,,---,-99.99,VWS V14.01,2013-02-25 10:11:00,
2013-02-25 02:16:00,29.8,-6.3,30.24,SSW,209,0.0,0.0,20,-99.99,,---,-99.99,VWS V14.01,2013-02-25 10:16:00,
2013-02-25 02:22:00,29.8,-6.3,30.24,South,171,0.0,0.0,20,-99.99,,---,-99.99,VWS V14.01,2013-02-25 10:22:00,
2013-02-25 02:27:00,30.2,-6.0,30.24,South,171,0.0,0.0,20,-99.99,,---,-99.99,VWS V14.01,2013-02-25 10:27:00,
2013-02-25 02:32:00,30.6,-5.7,30.24,South,178,0.0,0.0,20,-99.99,,---,-99.99,VWS V14.01,2013-02-25 10:32:00,
2013-02-25 02:37:00,30.6,-5.7,30.24,South,178,0.0,0.0,20,-99.99,,---,-99.99,VWS V14.01,2013-02-25 10:37:00,
2013-02-25 02:42:00,30.2,-6.0,30.24,South,178,0.0,0.0,20,-99.99,,---,-99.99,VWS V14.01,2013-02-25 10:42:00,
2013-02-25 02:47:00,30.2,-6.0,30.24,South,178,0.0,0.0,20,-99.99,,---,-99.99,VWS V14.01,2013-02-25 10:47:00,
2013-02-25 02:52:00,30.2,-6.0,30.24,South,178,0.0,0.0,20,-99.99,,---,-99.99,VWS V14.01,2013-02-25 10:52:00,
2013-02-25 02:57:00,30.2,-6.0,30.24,South,178,0.0,0.0,20,-99.99,,---,-99.99,VWS V14.01,2013-02-25 10:57:00,
2013-02-25 03:02:00,30.6,-5.7,30.24,South,178,0.0,0.0,20,-99.99,,---,-99.99,VWS V14.01,2013-02-25 11:02:00,
2013-02-25 03:07:00,30.7,-5.6,30.24,South,178,0.0,0.0,20,-99.99,,---,-99.99,VWS V14.01,2013-02-25 11:07:00,
2013-02-25 03:12:00,30.7,-5.6,30.24,South,178,0.0,0.0,20,-99.99,,---,-99.99,VWS V14.01,2013-02-25 11:12:00,
2013-02-25 03:17:00,30.6,-5.7,30.24,South,178,0.0,0.0,20,-99.99,,---,-99.99,VWS V14.01,2013-02-25 11:17:00,
2013-02-25 03:22:00,30.4,-5.9,30.24,South,178,0.0,0.0,20,-99.99,,---,-99.99,VWS V14.01,2013-02-25 11:22:00,
2013-02-25 03:27:00,30.2,-6.0,30.24,South,178,0.0,0.0,20,-99.99,,---,-99.99,VWS V14.01,2013-02-25 11:27:00,
2013-02-25 03:32:00,29.5,-6.6,30.24,South,178,0.0,0.0,20,-99.99,,---,-99.99,VWS V14.01,2013-02-25 11:32:00,
2013-02-25 03:37:00,29.5,-6.6,30.24,South,178,0.0,0.0,20,-99.99,,---,-99.99,VWS V14.01,2013-02-25 11:37:00,
2013-02-25 03:42:00,29.5,-6.6,30.24,South,178,0.0,0.0,20,-99.99,,---,-99.99,VWS V14.01,2013-02-25 11:42:00,
2013-02-25 03:47:00,29.5,-6.6,30.24,South,178,0.0,0.0,20,-99.99,,---,-99.99,VWS V14.01,2013-02-25 11:47:00,
2013-02-25 03:52:00,28.6,-7.4,30.24,South,178,0.0,0.0,20,-99.99,,---,-99.99,VWS V14.01,2013-02-25 11:52:00,
2013-02-25 03:57:00,28.6,-7.4,30.24,South,178,0.0,0.0,20,-99.99,,---,-99.99,VWS V14.01,2013-02-25 11:57:00,
2013-02-25 04:02:00,28.6,-7.4,30.24,South,178,0.0,0.0,20,-99.99,,---,-99.99,VWS V14.01,2013-02-25 12:02:00,
2013-02-25 04:07:00,28.4,-6.5,30.24,South,178,0.0,0.0,21,-99.99,,---,-99.99,VWS V14.01,2013-02-25 12:07:00,
2013-02-25 04:12:00,28.4,-6.5,30.24,South,178,0.0,0.0,21,-99.99,,---,-99.99,VWS V14.01,2013-02-25 12:12:00,
2013-02-25 04:17:00,28.6,-7.4,30.24,South,178,0.0,0.0,20,-99.99,,---,-99.99,VWS V14.01,2013-02-25 12:17:00,
2013-02-25 04:22:00,28.6,-7.4,30.24,South,178,0.0,0.0,20,-99.99,,---,-99.99,VWS V14.01,2013-02-25 12:22:00,
2013-02-25 04:27:00,28.8,-7.2,30.24,South,178,0.0,0.0,20,-99.99,,---,-99.99,VWS V14.01,2013-02-25 12:27:00,
2013-02-25 04:32:00,28.8,-7.2,30.24,South,178,0.0,0.0,20,-99.99,,---,-99.99,VWS V14.01,2013-02-25 12:32:00,
2013-02-25 04:37:00,27.9,-7.0,30.24,South,178,0.0,0.0,21,-99.99,,---,-99.99,VWS V14.01,2013-02-25 12:37:00,
2013-02-25 04:42:00,27.7,-7.2,30.24,South,178,0.0,0.0,21,-99.99,,---,-99.99,VWS V14.01,2013-02-25 12:42:00,
2013-02-25 04:47:00,27.7,-7.2,30.24,South,178,0.0,0.0,21,-99.99,,---,-99.99,VWS V14.01,2013-02-25 12:47:00,
2013-02-25 04:52:00,27.5,-7.3,30.24,South,178,0.0,0.0,21,-99.99,,---,-99.99,VWS V14.01,2013-02-25 12:52:00,
2013-02-25 04:57:00,27.5,-7.3,30.24,South,178,0.0,0.0,21,-99.99,,---,-99.99,VWS V14.01,2013-02-25 12:57:00,
2013-02-25 05:02:00,28.9,-7.1,30.24,South,178,0.0,0.0,20,-99.99,,---,-99.99,VWS V14.01,2013-02-25 13:02:00,
2013-02-25 05:07:00,29.1,-6.9,30.24,South,178,0.0,0.0,20,-99.99,,---,-99.99,VWS V14.01,2013-02-25 13:07:00,
2013-02-25 05:13:00,29.3,-6.8,30.24,South,178,0.0,0.0,20,-99.99,,---,-99.99,VWS V14.01,2013-02-25 13:13:00,
2013-02-25 05:18:00,29.5,-6.6,30.24,South,178,0.0,0.0,20,-99.99,,---,-99.99,VWS V14.01,2013-02-25 13:18:00,
2013-02-25 05:23:00,29.5,-6.6,30.24,South,178,0.0,0.0,20,-99.99,,---,-99.99,VWS V14.01,2013-02-25 13:23:00,
2013-02-25 05:28:00,29.1,-6.9,30.24,South,178,0.0,0.0,20,-99.99,,---,-99.99,VWS V14.01,2013-02-25 13:28:00,
2013-02-25 05:33:00,29.5,-6.6,30.24,South,178,0.0,0.0,20,-99.99,,---,-99.99,VWS V14.01,2013-02-25 13:33:00,
2013-02-25 05:38:00,29.5,-6.6,30.24,SW,217,11.0,11.0,20,-99.99,,---,-99.99,VWS V14.01,2013-02-25 13:38:00,
2013-02-25 05:43:00,29.5,-6.6,30.24,SW,217,11.0,11.0,20,-99.99,,---,-99.99,VWS V14.01,2013-02-25 13:43:00,
2013-02-25 05:48:00,29.1,-6.9,30.24,SSW,198,10.5,10.5,20,-99.99,,---,-99.99,VWS V14.01,2013-02-25 13:48:00,
2013-02-25 05:53:00,28.9,-7.1,30.24,SSW,202,10.5,10.5,20,-99.99,,---,-99.99,VWS V14.01,2013-02-25 13:53:00,
2013-02-25 05:58:00,28.9,-7.1,30.24,SSW,198,13.2,13.2,20,-99.99,,---,-99.99,VWS V14.01,2013-02-25 13:58:00,
2013-02-25 06:03:00,28.9,-7.1,30.24,South,191,13.2,13.2,20,-99.99,,---,-99.99,VWS V14.01,2013-02-25 14:03:00,
2013-02-25 06:08:00,28.9,-7.1,30.24,SSW,196,12.8,12.8,20,-99.99,,---,-99.99,VWS V14.01,2013-02-25 14:08:00,
2013-02-25 06:13:00,28.9,-7.1,30.24,SSW,192,13.2,13.2,20,-99.99,,---,-99.99,VWS V14.01,2013-02-25 14:13:00,
2013-02-25 06:18:00,28.9,-7.1,30.24,SSW,206,12.8,12.8,20,-99.99,,---,-99.99,VWS V14.01,2013-02-25 14:18:00,
2013-02-25 06:23:00,28.9,-7.1,30.24,SW,221,15.0,15.0,20,-99.99,,---,-99.99,VWS V14.01,2013-02-25 14:23:00,
2013-02-25 06:28:00,28.9,-7.1,30.24,SW,218,13.2,13.2,20,-99.99,,---,-99.99,VWS V14.01,2013-02-25 14:28:00,
2013-02-25 06:33:00,28.9,-7.1,30.24,SSW,209,10.5,10.5,20,-99.99,,---,-99.99,VWS V14.01,2013-02-25 14:33:00,
2013-02-25 06:38:00,28.9,-7.1,30.24,SW,216,11.0,13.2,20,-99.99,,---,-99.99,VWS V14.01,2013-02-25 14:38:00,
2013-02-25 06:43:00,28.9,-7.1,30.24,SW,233,15.0,15.0,20,-99.99,,---,-99.99,VWS V14.01,2013-02-25 14:43:00,
2013-02-25 06:48:00,28.9,-7.1,30.24,SW,225,12.8,12.8,20,-99.99,,---,-99.99,VWS V14.01,2013-02-25 14:48:00,
2013-02-25 06:53:00,28.9,-7.1,30.24,SW,222,12.8,12.8,20,-99.99,,---,-99.99,VWS V14.01,2013-02-25 14:53:00,
2013-02-25 06:58:00,28.9,-7.1,30.24,SW,236,12.8,12.8,20,-99.99,,---,-99.99,VWS V14.01,2013-02-25 14:58:00,
2013-02-25 07:03:00,33.4,-3.3,30.24,SW,217,9.6,9.6,20,-99.99,,---,-99.99,VWS V14.01,2013-02-25 15:03:00,
2013-02-25 07:08:00,33.4,-3.3,30.24,SW,223,12.8,12.8,20,-99.99,,---,-99.99,VWS V14.01,2013-02-25 15:08:00,
2013-02-25 07:13:00,33.3,-3.5,30.24,SW,227,12.3,12.3,20,-99.99,,---,-99.99,VWS V14.01,2013-02-25 15:13:00,
2013-02-25 07:18:00,33.3,-3.5,30.24,WSW,238,12.8,12.8,20,-99.99,,---,-99.99,VWS V14.01,2013-02-25 15:18:00,
2013-02-25 07:23:00,33.3,-3.5,30.24,SW,229,10.5,10.5,20,-99.99,,---,-99.99,VWS V14.01,2013-02-25 15:23:00,
2013-02-25 07:28:00,33.3,-3.5,30.24,SW,226,10.5,10.5,20,-99.99,,---,-99.99,VWS V14.01,2013-02-25 15:28:00,
2013-02-25 07:33:00,33.6,-3.2,30.24,SW,223,10.1,10.1,20,-99.99,,---,-99.99,VWS V14.01,2013-02-25 15:33:00,
2013-02-25 07:38:00,33.4,-3.3,30.24,SW,232,11.4,11.4,20,-99.99,,---,-99.99,VWS V14.01,2013-02-25 15:38:00,
2013-02-25 07:43:00,33.6,-3.2,30.24,SW,226,12.8,12.8,20,-99.99,,---,-99.99,VWS V14.01,2013-02-25 15:43:00,
2013-02-25 07:48:00,33.6,-3.2,30.24,SW,235,13.6,13.6,20,-99.99,,---,-99.99,VWS V14.01,2013-02-25 15:48:00,
2013-02-25 07:53:00,34.3,-2.6,30.24,WSW,241,10.5,10.5,20,-99.99,,---,-99.99,VWS V14.01,2013-02-25 15:53:00,
2013-02-25 07:58:00,34.3,-2.6,30.24,SW,221,12.3,12.3,20,-99.99,,---,-99.99,VWS V14.01,2013-02-25 15:58:00,
2013-02-25 08:03:00,35.2,-1.8,30.24,SW,233,10.5,10.5,20,-99.99,,---,-99.99,VWS V14.01,2013-02-25 16:03:00,
2013-02-25 08:08:00,35.2,-1.8,30.24,SW,230,15.4,15.4,20,-99.99,,---,-99.99,VWS V14.01,2013-02-25 16:08:00,
2013-02-25 08:13:00,35.2,-1.8,30.24,WSW,240,12.8,15.0,20,-99.99,,---,-99.99,VWS V14.01,2013-02-25 16:13:00,
2013-02-25 08:18:00,35.6,-2.6,30.24,WSW,238,13.6,13.6,19,-99.99,,---,-99.99,VWS V14.01,2013-02-25 16:18:00,
2013-02-25 08:23:00,35.8,-2.4,30.21,WSW,249,15.4,15.4,19,-99.99,,---,-99.99,VWS V14.01,2013-02-25 16:23:00,
2013-02-25 08:28:00,35.8,-2.4,30.21,WSW,237,13.2,13.2,19,-99.99,,---,-99.99,VWS V14.01,2013-02-25 16:28:00,
2013-02-25 08:33:00,36.3,-2.0,30.21,WSW,241,15.4,15.4,19,-99.99,,---,-99.99,VWS V14.01,2013-02-25 16:33:00,
2013-02-25 08:38:00,36.3,-2.0,30.21,SW,235,13.2,13.2,19,-99.99,,---,-99.99,VWS V14.01,2013-02-25 16:38:00,
2013-02-25 08:44:00,36.3,-2.0,30.21,WSW,249,15.9,15.9,19,-99.99,,---,-99.99,VWS V14.01,2013-02-25 16:44:00,
2013-02-25 08:49:00,36.9,-1.5,30.21,WSW,248,14.1,21.5,19,-99.99,,---,-99.99,VWS V14.01,2013-02-25 16:49:00,
2013-02-25 08:54:00,37.6,1.2,30.21,SW,236,15.4,15.4,21,-99.99,,---,-99.99,VWS V14.01,2013-02-25 16:54:00,
2013-02-25 08:59:00,37.9,1.5,30.21,WSW,237,14.5,14.5,21,-99.99,,---,-99.99,VWS V14.01,2013-02-25 16:59:00,
2013-02-25 09:04:00,37.9,1.5,30.21,SW,231,10.5,10.5,21,-99.99,,---,-99.99,VWS V14.01,2013-02-25 17:04:00,
2013-02-25 09:09:00,37.9,1.5,30.21,WSW,241,13.2,13.2,21,-99.99,,---,-99.99,VWS V14.01,2013-02-25 17:09:00,
2013-02-25 09:14:00,37.9,1.5,30.21,WSW,239,17.9,18.8,21,-99.99,,---,-99.99,VWS V14.01,2013-02-25 17:14:00,
2013-02-25 09:19:00,38.1,1.6,30.21,WSW,241,17.9,17.9,21,-99.99,,---,-99.99,VWS V14.01,2013-02-25 17:19:00,
2013-02-25 09:24:00,38.3,1.8,30.21,SW,231,15.4,17.0,21,-99.99,,---,-99.99,VWS V14.01,2013-02-25 17:24:00,
2013-02-25 09:29:00,38.5,2.0,30.21,WSW,242,17.9,17.9,21,-99.99,,---,-99.99,VWS V14.01,2013-02-25 17:29:00,
2013-02-25 09:34:00,38.8,2.3,30.21,SW,226,15.0,15.0,21,-99.99,,---,-99.99,VWS V14.01,2013-02-25 17:34:00,
2013-02-25 09:39:00,38.8,2.3,30.21,WSW,248,13.2,13.2,21,-99.99,,---,-99.99,VWS V14.01,2013-02-25 17:39:00,
2013-02-25 09:44:00,39.2,2.6,30.21,WSW,241,14.5,14.5,21,-99.99,,---,-99.99,VWS V14.01,2013-02-25 17:44:00,
2013-02-25 09:49:00,39.2,2.6,30.21,WSW,250,13.2,13.2,21,-99.99,,---,-99.99,VWS V14.01,2013-02-25 17:49:00,
2013-02-25 09:54:00,39.7,3.0,30.21,SW,232,15.4,15.4,21,-99.99,,---,-99.99,VWS V14.01,2013-02-25 17:54:00,
2013-02-25 09:59:00,39.6,2.9,30.21,WSW,247,18.3,18.3,21,-99.99,,---,-99.99,VWS V14.01,2013-02-25 17:59:00,
2013-02-25 10:04:00,39.6,2.9,30.21,WSW,249,19.7,19.7,21,-99.99,,---,-99.99,VWS V14.01,2013-02-25 18:04:00,
2013-02-25 10:09:00,39.6,2.9,30.21,SW,236,13.2,16.8,21,-99.99,,---,-99.99,VWS V14.01,2013-02-25 18:09:00,
2013-02-25 10:14:00,39.6,2.9,30.21,WSW,246,17.9,17.9,21,-99.99,,---,-99.99,VWS V14.01,2013-02-25 18:14:00,
2013-02-25 10:19:00,39.7,3.0,30.21,WSW,245,10.1,10.1,21,-99.99,,---,-99.99,VWS V14.01,2013-02-25 18:19:00,
2013-02-25 10:24:00,40.1,3.3,30.21,WSW,251,15.4,15.4,21,-99.99,,---,-99.99,VWS V14.01,2013-02-25 18:24:00,
2013-02-25 10:29:00,40.3,3.5,30.21,WSW,244,15.0,15.0,21,-99.99,,---,-99.99,VWS V14.01,2013-02-25 18:29:00,
2013-02-25 10:34:00,40.5,3.6,30.21,SW,232,15.4,15.4,21,-99.99,,---,-99.99,VWS V14.01,2013-02-25 18:34:00,
2013-02-25 10:39:00,40.5,3.6,30.21,WSW,249,14.5,14.5,21,-99.99,,---,-99.99,VWS V14.01,2013-02-25 18:39:00,
2013-02-25 10:44:00,40.8,3.9,30.21,WSW,243,15.4,15.4,21,-99.99,,---,-99.99,VWS V14.01,2013-02-25 18:44:00,
2013-02-25 10:49:00,40.8,3.9,30.21,SW,231,13.6,13.6,21,-99.99,,---,-99.99,VWS V14.01,2013-02-25 18:49:00,
2013-02-25 10:54:00,40.6,3.8,30.21,WSW,240,16.3,16.3,21,-99.99,,---,-99.99,VWS V14.01,2013-02-25 18:54:00,
2013-02-25 10:59:00,41.0,4.1,30.21,WSW,238,12.8,12.8,21,-99.99,,---,-99.99,VWS V14.01,2013-02-25 18:59:00,
2013-02-25 11:04:00,41.0,4.1,30.21,WSW,249,15.4,15.4,21,-99.99,,---,-99.99,VWS V14.01,2013-02-25 19:04:00,
2013-02-25 11:09:00,40.6,3.8,30.21,WSW,244,18.8,18.8,21,-99.99,,---,-99.99,VWS V14.01,2013-02-25 19:09:00,
2013-02-25 11:14:00,40.6,3.8,30.21,WSW,241,21.5,21.5,21,-99.99,,---,-99.99,VWS V14.01,2013-02-25 19:14:00,
2013-02-25 11:19:00,40.8,3.9,30.21,WSW,242,19.7,19.7,21,-99.99,,---,-99.99,VWS V14.01,2013-02-25 19:19:00,
2013-02-25 11:24:00,40.6,3.8,30.21,West,260,12.8,12.8,21,-99.99,,---,-99.99,VWS V14.01,2013-02-25 19:24:00,
2013-02-25 11:29:00,40.6,3.8,30.18,SW,235,16.8,16.8,21,-99.99,,---,-99.99,VWS V14.01,2013-02-25 19:29:00,
2013-02-25 11:34:00,40.8,3.9,30.18,WSW,241,18.3,18.3,21,-99.99,,---,-99.99,VWS V14.01,2013-02-25 19:34:00,
2013-02-25 11:39:00,40.8,3.9,30.18,WSW,243,15.4,15.4,21,-99.99,,---,-99.99,VWS V14.01,2013-02-25 19:39:00,
2013-02-25 11:44:00,41.2,4.2,30.18,WSW,250,15.0,15.0,21,-99.99,,---,-99.99,VWS V14.01,2013-02-25 19:44:00,
2013-02-25 11:49:00,41.2,4.2,30.21,WSW,245,12.8,12.8,21,-99.99,,---,-99.99,VWS V14.01,2013-02-25 19:49:00,
2013-02-25 11:54:00,41.9,4.8,30.21,SW,230,12.8,12.8,21,-99.99,,---,-99.99,VWS V14.01,2013-02-25 19:54:00,
2013-02-25 11:59:00,41.2,4.2,30.21,SW,230,10.5,10.5,21,-99.99,,---,-99.99,VWS V14.01,2013-02-25 19:59:00,
2013-02-25 12:04:00,41.2,4.2,30.21,SW,215,15.4,15.4,21,-99.99,,---,-99.99,VWS V14.01,2013-02-25 20:04:00,
2013-02-25 12:09:00,41.2,4.2,30.18,SW,236,15.0,15.0,21,-99.99,,---,-99.99,VWS V14.01,2013-02-25 20:09:00,
2013-02-25 12:14:00,41.2,4.2,30.18,SW,223,10.1,10.1,21,-99.99,,---,-99.99,VWS V14.01,2013-02-25 20:14:00,
2013-02-25 12:19:00,41.7,4.7,30.18,SW,227,12.3,12.3,21,-99.99,,---,-99.99,VWS V14.01,2013-02-25 20:19:00,
2013-02-25 12:24:00,41.7,4.7,30.18,SW,231,11.0,11.0,21,-99.99,,---,-99.99,VWS V14.01,2013-02-25 20:24:00,
2013-02-25 12:29:00,41.5,4.5,30.18,SW,231,8.1,8.1,21,-99.99,,---,-99.99,VWS V14.01,2013-02-25 20:29:00,
2013-02-25 12:34:00,42.1,5.0,30.18,SW,219,8.7,8.7,21,-99.99,,---,-99.99,VWS V14.01,2013-02-25 20:34:00,
2013-02-25 12:39:00,41.2,4.2,30.18,SW,229,11.0,12.8,21,-99.99,,---,-99.99,VWS V14.01,2013-02-25 20:39:00,
2013-02-25 12:44:00,40.6,3.8,30.18,SW,218,11.0,11.0,21,-99.99,,---,-99.99,VWS V14.01,2013-02-25 20:44:00,
2013-02-25 12:49:00,40.6,3.8,30.18,SW,216,10.1,10.1,21,-99.99,,---,-99.99,VWS V14.01,2013-02-25 20:49:00,
2013-02-25 12:55:00,40.6,3.8,30.18,SW,226,10.5,10.5,21,-99.99,,---,-99.99,VWS V14.01,2013-02-25 20:55:00,
2013-02-25 13:00:00,40.6,3.8,30.18,SW,233,10.5,10.5,21,-99.99,,---,-99.99,VWS V14.01,2013-02-25 21:00:00,
2013-02-25 13:05:00,39.7,3.0,30.18,SW,220,10.1,10.1,21,-99.99,,---,-99.99,VWS V14.01,2013-02-25 21:05:00,
2013-02-25 13:10:00,39.7,3.0,30.18,SW,229,10.5,10.5,21,-99.99,,---,-99.99,VWS V14.01,2013-02-25 21:10:00,
2013-02-25 13:15:00,39.6,2.9,30.18,SW,230,10.5,10.5,21,-99.99,,---,-99.99,VWS V14.01,2013-02-25 21:15:00,
2013-02-25 13:20:00,39.6,2.9,30.18,SW,232,13.2,13.2,21,-99.99,,---,-99.99,VWS V14.01,2013-02-25 21:20:00,
2013-02-25 13:25:00,39.6,2.9,30.18,SW,234,12.8,12.8,21,-99.99,,---,-99.99,VWS V14.01,2013-02-25 21:25:00,
2013-02-25 13:30:00,40.3,3.5,30.18,SW,216,12.8,12.8,21,-99.99,,---,-99.99,VWS V14.01,2013-02-25 21:30:00,
2013-02-25 13:35:00,39.6,2.9,30.18,SW,229,10.5,10.5,21,-99.99,,---,-99.99,VWS V14.01,2013-02-25 21:35:00,
2013-02-25 13:40:00,39.6,2.9,30.18,SW,216,12.8,12.8,21,-99.99,,---,-99.99,VWS V14.01,2013-02-25 21:40:00,
2013-02-25 13:45:00,38.5,2.0,30.18,SW,217,15.0,15.0,21,-99.99,,---,-99.99,VWS V14.01,2013-02-25 21:45:00,
2013-02-25 13:50:00,38.1,1.6,30.18,WSW,254,17.4,17.4,21,-99.99,,---,-99.99,VWS V14.01,2013-02-25 21:50:00,
2013-02-25 13:55:00,38.1,1.6,30.18,SW,227,13.2,17.4,21,-99.99,,---,-99.99,VWS V14.01,2013-02-25 21:55:00,
2013-02-25 14:00:00,38.1,1.6,30.18,SW,234,16.3,16.3,21,-99.99,,---,-99.99,VWS V14.01,2013-02-25 22:00:00,
2013-02-25 14:05:00,38.5,2.0,30.15,WSW,240,15.4,15.4,21,-99.99,,---,-99.99,VWS V14.01,2013-02-25 22:05:00,
2013-02-25 14:10:00,38.3,1.8,30.15,SW,227,17.0,17.0,21,-99.99,,---,-99.99,VWS V14.01,2013-02-25 22:10:00,
2013-02-25 14:15:00,38.5,2.0,30.15,SW,233,19.7,19.7,21,-99.99,,---,-99.99,VWS V14.01,2013-02-25 22:15:00,
2013-02-25 14:20:00,38.5,2.0,30.18,WSW,238,17.9,17.9,21,-99.99,,---,-99.99,VWS V14.01,2013-02-25 22:20:00,
2013-02-25 14:25:00,38.5,2.0,30.18,SSW,211,19.7,19.7,21,-99.99,,---,-99.99,VWS V14.01,2013-02-25 22:25:00,
2013-02-25 14:30:00,37.8,1.4,30.18,WSW,239,17.4,17.4,21,-99.99,,---,-99.99,VWS V14.01,2013-02-25 22:30:00,
2013-02-25 14:35:00,37.8,1.4,30.18,SW,229,17.4,17.4,21,-99.99,,---,-99.99,VWS V14.01,2013-02-25 22:35:00,
2013-02-25 14:40:00,37.6,1.2,30.15,WSW,242,19.7,19.7,21,-99.99,,---,-99.99,VWS V14.01,2013-02-25 22:40:00,
2013-02-25 14:45:00,37.4,1.0,30.15,SW,232,14.5,14.5,21,-99.99,,---,-99.99,VWS V14.01,2013-02-25 22:45:00,
2013-02-25 14:50:00,37.4,1.0,30.15,SW,222,17.4,17.4,21,-99.99,,---,-99.99,VWS V14.01,2013-02-25 22:50:00,
2013-02-25 14:55:00,36.3,-2.0,30.15,SW,234,15.9,15.9,19,-99.99,,---,-99.99,VWS V14.01,2013-02-25 22:55:00,
2013-02-25 15:00:00,36.3,-2.0,30.15,SW,232,15.9,20.1,19,-99.99,,---,-99.99,VWS V14.01,2013-02-25 23:00:00,
2013-02-25 15:05:00,36.1,-2.1,30.15,SW,229,17.0,17.0,19,-99.99,,---,-99.99,VWS V14.01,2013-02-25 23:05:00,
2013-02-25 15:10:00,35.6,-2.6,30.15,SW,229,19.7,19.7,19,-99.99,,---,-99.99,VWS V14.01,2013-02-25 23:10:00,
2013-02-25 15:15:00,35.6,-2.6,30.15,SW,234,21.9,21.9,19,-99.99,,---,-99.99,VWS V14.01,2013-02-25 23:15:00,
2013-02-25 15:20:00,35.4,-1.6,30.15,SW,231,26.2,26.2,20,-99.99,,---,-99.99,VWS V14.01,2013-02-25 23:20:00,
2013-02-25 15:25:00,35.6,-2.6,30.15,SW,226,22.4,22.4,19,-99.99,,---,-99.99,VWS V14.01,2013-02-25 23:25:00,
2013-02-25 15:30:00,35.4,-1.6,30.15,WSW,251,25.5,25.5,20,-99.99,,---,-99.99,VWS V14.01,2013-02-25 23:30:00,
2013-02-25 15:35:00,35.4,-1.6,30.15,SW,230,18.3,18.3,20,-99.99,,---,-99.99,VWS V14.01,2013-02-25 23:35:00,
2013-02-25 15:40:00,35.2,-1.8,30.15,WSW,238,18.3,18.3,20,-99.99,,---,-99.99,VWS V14.01,2013-02-25 23:40:00,
2013-02-25 15:45:00,35.2,-1.8,30.15,SW,227,23.7,23.7,20,-99.99,,---,-99.99,VWS V14.01,2013-02-25 23:45:00,
2013-02-25 15:50:00,35.1,-2.0,30.15,West,270,26.2,26.2,20,-99.99,,---,-99.99,VWS V14.01,2013-02-25 23:50:00,
2013-02-25 15:55:00,34.9,-2.1,30.15,SW,232,25.7,25.7,20,-99.99,,---,-99.99,VWS V14.01,2013-02-25 23:55:00,
2013-02-25 16:00:00,34.9,-2.1,30.15,SSW,211,22.8,22.8,20,-99.99,,---,-99.99,VWS V14.01,2013-02-26 00:00:00,
2013-02-25 16:05:00,34.9,-2.1,30.15,SW,224,22.4,22.4,20,-99.99,,---,-99.99,VWS V14.01,2013-02-26 00:05:00,
2013-02-25 16:10:00,34.3,-2.6,30.15,SW,228,25.1,26.6,20,-99.99,,---,-99.99,VWS V14.01,2013-02-26 00:10:00,
2013-02-25 16:15:00,34.3,-2.6,30.15,SW,227,21.9,21.9,20,-99.99,,---,-99.99,VWS V14.01,2013-02-26 00:15:00,
2013-02-25 16:20:00,34.0,-2.9,30.15,SW,226,23.7,23.7,20,-99.99,,---,-99.99,VWS V14.01,2013-02-26 00:20:00,
2013-02-25 16:25:00,34.0,-2.9,30.15,SW,225,25.5,25.5,20,-99.99,,---,-99.99,VWS V14.01,2013-02-26 00:25:00,
2013-02-25 16:30:00,33.8,-3.0,30.15,SW,236,25.1,25.1,20,-99.99,,---,-99.99,VWS V14.01,2013-02-26 00:30:00,
2013-02-25 16:35:00,33.6,-3.2,30.12,SW,231,25.5,25.5,20,-99.99,,---,-99.99,VWS V14.01,2013-02-26 00:35:00,
2013-02-25 16:40:00,33.6,-3.2,30.12,SW,229,25.7,25.7,20,-99.99,,---,-99.99,VWS V14.01,2013-02-26 00:40:00,
2013-02-25 16:45:00,33.6,-3.2,30.12,SW,221,25.7,25.7,20,-99.99,,---,-99.99,VWS V14.01,2013-02-26 00:45:00,
2013-02-25 16:50:00,33.4,-3.3,30.12,SW,236,17.4,17.4,20,-99.99,,---,-99.99,VWS V14.01,2013-02-26 00:50:00,
2013-02-25 16:55:00,33.1,-3.6,30.12,WSW,237,22.8,22.8,20,-99.99,,---,-99.99,VWS V14.01,2013-02-26 00:55:00,
2013-02-25 17:00:00,33.1,-3.6,30.12,SW,232,23.3,23.3,20,-99.99,,---,-99.99,VWS V14.01,2013-02-26 01:00:00,
2013-02-25 17:05:00,32.7,-3.9,30.12,SW,234,26.2,26.2,20,-99.99,,---,-99.99,VWS V14.01,2013-02-26 01:05:00,
2013-02-25 17:10:00,32.7,-3.9,30.12,WSW,238,28.9,28.9,20,-99.99,,---,-99.99,VWS V14.01,2013-02-26 01:10:00,
2013-02-25 17:15:00,32.7,-3.9,30.12,SW,234,22.8,22.8,20,-99.99,,---,-99.99,VWS V14.01,2013-02-26 01:15:00,
2013-02-25 17:20:00,32.5,-4.1,30.12,SW,229,21.9,21.9,20,-99.99,,---,-99.99,VWS V14.01,2013-02-26 01:20:00,
2013-02-25 17:25:00,32.5,-4.1,30.12,WSW,245,24.6,24.6,20,-99.99,,---,-99.99,VWS V14.01,2013-02-26 01:25:00,
2013-02-25 17:30:00,32.0,-4.5,30.12,SW,234,26.2,26.2,20,-99.99,,---,-99.99,VWS V14.01,2013-02-26 01:30:00,
2013-02-25 17:35:00,32.0,-4.5,30.12,SW,235,27.1,27.1,20,-99.99,,---,-99.99,VWS V14.01,2013-02-26 01:35:00,
2013-02-25 17:40:00,31.6,-4.8,30.12,SW,224,24.6,25.5,20,-99.99,,---,-99.99,VWS V14.01,2013-02-26 01:40:00,
2013-02-25 17:45:00,31.5,-5.0,30.12,SW,232,24.2,24.2,20,-99.99,,---,-99.99,VWS V14.01,2013-02-26 01:45:00,
2013-02-25 17:50:00,31.5,-5.0,30.12,SW,227,27.5,27.5,20,-99.99,,---,-99.99,VWS V14.01,2013-02-26 01:50:00,
2013-02-25 17:55:00,30.2,-6.0,30.12,SW,235,30.2,30.2,20,-99.99,,---,-99.99,VWS V14.01,2013-02-26 01:55:00,
2013-02-25 18:00:00,30.2,-6.0,30.12,SW,234,25.1,25.1,20,-99.99,,---,-99.99,VWS V14.01,2013-02-26 02:00:00,
2013-02-25 18:05:00,29.3,-6.8,30.12,SW,224,25.1,25.1,20,-99.99,,---,-99.99,VWS V14.01,2013-02-26 02:05:00,
2013-02-25 18:10:00,28.6,-7.4,30.12,SW,235,25.7,25.7,20,-99.99,,---,-99.99,VWS V14.01,2013-02-26 02:10:00,
2013-02-25 18:15:00,28.6,-7.4,30.12,WSW,250,22.8,22.8,20,-99.99,,---,-99.99,VWS V14.01,2013-02-26 02:15:00,
2013-02-25 18:20:00,28.0,-6.8,30.12,SW,232,31.5,31.5,21,-99.99,,---,-99.99,VWS V14.01,2013-02-26 02:20:00,
2013-02-25 18:26:00,28.0,-6.8,30.12,SW,222,31.5,31.5,21,-99.99,,---,-99.99,VWS V14.01,2013-02-26 02:26:00,
2013-02-25 18:31:00,27.9,-7.0,30.12,SW,236,26.6,26.6,21,-99.99,,---,-99.99,VWS V14.01,2013-02-26 02:31:00,
2013-02-25 18:36:00,27.9,-7.0,30.12,SW,221,28.4,28.4,21,-99.99,,---,-99.99,VWS V14.01,2013-02-26 02:36:00,
2013-02-25 18:41:00,28.0,-6.8,30.12,WSW,239,30.2,30.2,21,-99.99,,---,-99.99,VWS V14.01,2013-02-26 02:41:00,
2013-02-25 18:46:00,27.9,-7.0,30.12,WSW,243,27.5,27.5,21,-99.99,,---,-99.99,VWS V14.01,2013-02-26 02:46:00,
2013-02-25 18:51:00,27.9,-7.0,30.12,SW,236,35.3,35.3,21,-99.99,,---,-99.99,VWS V14.01,2013-02-26 02:51:00,
2013-02-25 18:56:00,27.9,-7.0,30.12,SW,229,26.6,35.3,21,-99.99,,---,-99.99,VWS V14.01,2013-02-26 02:56:00,
2013-02-25 19:01:00,27.9,-7.0,30.12,SW,231,30.2,30.2,21,-99.99,,---,-99.99,VWS V14.01,2013-02-26 03:01:00,
2013-02-25 19:06:00,27.7,-7.2,30.12,WSW,239,26.2,26.2,21,-99.99,,---,-99.99,VWS V14.01,2013-02-26 03:06:00,
2013-02-25 19:11:00,27.7,-7.2,30.12,SW,235,25.1,25.1,21,-99.99,,---,-99.99,VWS V14.01,2013-02-26 03:11:00,
2013-02-25 19:16:00,27.9,-7.0,30.12,SW,235,25.1,25.1,21,-99.99,,---,-99.99,VWS V14.01,2013-02-26 03:16:00,
2013-02-25 19:21:00,27.7,-7.2,30.12,SW,235,25.1,25.1,21,-99.99,,---,-99.99,VWS V14.01,2013-02-26 03:21:00,
2013-02-25 19:26:00,27.7,-7.2,30.12,SW,235,25.1,25.1,21,-99.99,,---,-99.99,VWS V14.01,2013-02-26 03:26:00,
2013-02-25 19:31:00,27.9,-7.0,30.12,SW,235,25.1,25.1,21,-99.99,,---,-99.99,VWS V14.01,2013-02-26 03:31:00,
2013-02-25 19:36:00,27.9,-7.0,30.12,SW,235,25.1,25.1,21,-99.99,,---,-99.99,VWS V14.01,2013-02-26 03:36:00,
2013-02-25 19:41:00,27.7,-7.2,30.12,SW,235,25.1,25.1,21,-99.99,,---,-99.99,VWS V14.01,2013-02-26 03:41:00,
2013-02-25 19:46:00,27.5,-7.3,30.12,SW,235,25.1,25.1,21,-99.99,,---,-99.99,VWS V14.01,2013-02-26 03:46:00,
2013-02-25 19:51:00,27.5,-7.3,30.12,SW,235,25.1,25.1,21,-99.99,,---,-99.99,VWS V14.01,2013-02-26 03:51:00,
2013-02-25 19:56:00,27.5,-7.3,30.12,SW,235,25.1,25.1,21,-99.99,,---,-99.99,VWS V14.01,2013-02-26 03:56:00,
2013-02-25 20:01:00,27.5,-7.3,30.12,SW,235,25.1,25.1,21,-99.99,,---,-99.99,VWS V14.01,2013-02-26 04:01:00,
2013-02-25 20:06:00,27.3,-7.4,30.12,SW,235,25.1,25.1,21,-99.99,,---,-99.99,VWS V14.01,2013-02-26 04:06:00,
2013-02-25 20:11:00,27.3,-7.4,30.12,SW,235,25.1,25.1,21,-99.99,,---,-99.99,VWS V14.01,2013-02-26 04:11:00,
2013-02-25 20:16:00,27.5,-7.3,30.12,SW,235,25.1,25.1,21,-99.99,,---,-99.99,VWS V14.01,2013-02-26 04:16:00,
2013-02-25 20:21:00,27.5,-7.3,30.12,SW,235,25.1,25.1,21,-99.99,,---,-99.99,VWS V14.01,2013-02-26 04:21:00,
2013-02-25 20:26:00,27.5,-7.3,30.12,SW,235,25.1,25.1,21,-99.99,,---,-99.99,VWS V14.01,2013-02-26 04:26:00,
2013-02-25 20:31:00,27.0,-7.8,30.12,SW,235,25.1,25.1,21,-99.99,,---,-99.99,VWS V14.01,2013-02-26 04:31:00,
2013-02-25 20:36:00,27.0,-7.8,30.12,SW,235,25.1,25.1,21,-99.99,,---,-99.99,VWS V14.01,2013-02-26 04:36:00,
2013-02-25 20:41:00,27.0,-7.8,30.12,SW,235,25.1,25.1,21,-99.99,,---,-99.99,VWS V14.01,2013-02-26 04:41:00,
2013-02-25 20:46:00,26.6,-8.1,30.12,SW,235,25.1,25.1,21,-99.99,,---,-99.99,VWS V14.01,2013-02-26 04:46:00,
2013-02-25 20:51:00,26.6,-8.1,30.12,SW,235,25.1,25.1,21,-99.99,,---,-99.99,VWS V14.01,2013-02-26 04:51:00,
2013-02-25 20:56:00,26.2,-8.4,30.12,SW,235,25.1,25.1,21,-99.99,,---,-99.99,VWS V14.01,2013-02-26 04:56:00,
2013-02-25 21:00:00,26.2,-8.4,30.12,SW,235,25.1,25.1,21,-99.99,,---,-99.99,VWS V14.01,2013-02-26 05:00:00,
2013-02-25 21:05:00,26.1,-8.5,30.12,SW,233,24.2,24.2,21,-99.99,,---,-99.99,VWS V14.01,2013-02-26 05:05:00,
2013-02-25 21:10:00,26.1,-8.5,30.12,SW,233,24.2,24.2,21,-99.99,,---,-99.99,VWS V14.01,2013-02-26 05:10:00,
2013-02-25 21:15:00,26.1,-8.5,30.12,SW,233,24.2,24.2,21,-99.99,,---,-99.99,VWS V14.01,2013-02-26 05:15:00,
2013-02-25 21:20:00,26.1,-8.5,30.15,SW,233,24.2,24.2,21,-99.99,,---,-99.99,VWS V14.01,2013-02-26 05:20:00,
2013-02-25 21:25:00,25.9,-8.7,30.15,SW,233,24.2,24.2,21,-99.99,,---,-99.99,VWS V14.01,2013-02-26 05:25:00,
2013-02-25 21:30:00,26.2,-8.4,30.15,SW,233,24.2,24.2,21,-99.99,,---,-99.99,VWS V14.01,2013-02-26 05:30:00,
2013-02-25 21:35:00,26.2,-8.4,30.15,SW,229,29.8,29.8,21,-99.99,,---,-99.99,VWS V14.01,2013-02-26 05:35:00,
2013-02-25 21:40:00,26.2,-8.4,30.15,SW,229,29.8,29.8,21,-99.99,,---,-99.99,VWS V14.01,2013-02-26 05:40:00,
2013-02-25 21:45:00,26.2,-8.4,30.15,SW,223,28.4,28.4,21,-99.99,,---,-99.99,VWS V14.01,2013-02-26 05:45:00,
2013-02-25 21:50:00,26.4,-8.2,30.15,WSW,238,27.5,27.5,21,-99.99,,---,-99.99,VWS V14.01,2013-02-26 05:50:00,
2013-02-25 21:55:00,26.4,-8.2,30.15,SSW,210,28.9,28.9,21,-99.99,,---,-99.99,VWS V14.01,2013-02-26 05:55:00,
2013-02-25 22:00:00,26.4,-8.2,30.15,SW,222,25.5,25.5,21,-99.99,,---,-99.99,VWS V14.01,2013-02-26 06:00:00,
2013-02-25 22:05:00,26.4,-8.2,30.15,SW,222,25.5,25.5,21,-99.99,,---,-99.99,VWS V14.01,2013-02-26 06:05:00,
2013-02-25 22:10:00,26.4,-8.2,30.15,SW,232,28.9,28.9,21,-99.99,,---,-99.99,VWS V14.01,2013-02-26 06:10:00,
2013-02-25 22:16:00,26.4,-8.2,30.15,SW,231,27.5,30.2,21,-99.99,,---,-99.99,VWS V14.01,2013-02-26 06:16:00,
2013-02-25 22:20:00,26.4,-8.2,30.15,SW,232,23.7,26.2,21,-99.99,,---,-99.99,VWS V14.01,2013-02-26 06:20:00,
2013-02-25 22:25:00,26.4,-8.2,30.15,SW,223,27.5,27.5,21,-99.99,,---,-99.99,VWS V14.01,2013-02-26 06:25:00,
2013-02-25 22:31:00,26.4,-8.2,30.15,WSW,237,24.2,24.2,21,-99.99,,---,-99.99,VWS V14.01,2013-02-26 06:31:00,
2013-02-25 22:36:00,26.4,-8.2,30.15,SW,217,25.7,25.7,21,-99.99,,---,-99.99,VWS V14.01,2013-02-26 06:36:00,
2013-02-25 22:41:00,26.4,-8.2,30.15,SW,225,26.2,26.2,21,-99.99,,---,-99.99,VWS V14.01,2013-02-26 06:41:00,
2013-02-25 22:46:00,26.4,-8.2,30.15,WSW,241,25.5,25.5,21,-99.99,,---,-99.99,VWS V14.01,2013-02-26 06:46:00,
2013-02-25 22:51:00,26.4,-8.2,30.15,SW,235,26.6,31.1,21,-99.99,,---,-99.99,VWS V14.01,2013-02-26 06:51:00,
2013-02-25 22:56:00,26.4,-8.2,30.15,SW,219,30.2,30.2,21,-99.99,,---,-99.99,VWS V14.01,2013-02-26 06:56:00,
2013-02-25 23:01:00,26.4,-8.2,30.15,WSW,237,29.8,34.9,21,-99.99,,---,-99.99,VWS V14.01,2013-02-26 07:01:00,
2013-02-25 23:06:00,26.4,-8.2,30.15,SW,233,26.2,26.2,21,-99.99,,---,-99.99,VWS V14.01,2013-02-26 07:06:00,
2013-02-25 23:11:00,26.4,-8.2,30.15,SW,222,24.2,24.2,21,-99.99,,---,-99.99,VWS V14.01,2013-02-26 07:11:00,
2013-02-25 23:16:00,26.4,-8.2,30.15,SW,223,32.4,32.4,21,-99.99,,---,-99.99,VWS V14.01,2013-02-26 07:16:00,
2013-02-25 23:21:00,26.4,-8.2,30.15,SW,236,27.5,27.5,21,-99.99,,---,-99.99,VWS V14.01,2013-02-26 07:21:00,
2013-02-25 23:26:00,26.4,-8.2,30.15,SW,235,28.4,28.4,21,-99.99,,---,-99.99,VWS V14.01,2013-02-26 07:26:00,
2013-02-25 23:31:00,26.4,-8.2,30.15,SW,230,25.7,31.1,21,-99.99,,---,-99.99,VWS V14.01,2013-02-26 07:31:00,
2013-02-25 23:36:00,26.4,-8.2,30.15,SW,218,26.6,26.6,21,-99.99,,---,-99.99,VWS V14.01,2013-02-26 07:36:00,
2013-02-25 23:41:00,26.4,-8.2,30.15,SW,230,30.6,30.6,21,-99.99,,---,-99.99,VWS V14.01,2013-02-26 07:41:00,
2013-02-25 23:46:00,26.4,-8.2,30.15,SW,218,30.2,30.2,21,-99.99,,---,-99.99,VWS V14.01,2013-02-26 07:46:00,
2013-02-25 23:51:00,26.4,-8.2,30.15,SW,227,32.9,32.9,21,-99.99,,---,-99.99,VWS V14.01,2013-02-26 07:51:00,
2013-02-25 23:56:00,26.4,-8.2,30.15,SW,229,28.9,28.9,21,-99.99,,---,-99.99,VWS V14.01,2013-02-26 07:56:00,